Ogaki, Japan
Current Conditions -  °F | °C
As of 8:00 PM on Friday 19 Dec 2014 (Local Time) from RJGG Reporting Station
Broken Clouds Broken Clouds  
Wind Chill: 38°   Ceiling: Unl
Heat Index: 41°   Visibility: 6mi
Dew Point: 30°   Wind: 5mph
Humidity: 65%   Direction: 50°NE
Pressure: 30.39"   Gusts: NA
Location:  35.37°N, 136.61°E
Report Text: RJGG 191100Z 05004KT 9999 FEW020 SCT180 BKN/// 05/M01 Q1029 NOSIG
Loading
Personal Weather Stations






























Interactive Weather Map New forecast layout! Learn more

10-Day Weather Forecast

Advertisements
Track Severe Weather on mobile